Terminal Aerodrome Forecast
Issued by NWS

Home | Current Version | Previous Version | Text Only | Print | Product List | Glossary On
Versions: 1 2 3 4 5 6 7 8 9 10 11 12 13 14 15 16
636
FTUS46 KMTR 090538
TAFSJC
TAF
KSJC 090538Z 0906/1006 13007KT P6SM VCSH FEW008 BKN025 OVC050
     FM091000 12006KT P6SM BKN018 OVC025
     FM091800 13006KT P6SM SCT018 BKN025 OVC050=

USA.gov is the U.S. government's official web portal to all federal, state and local government web resources and services.